sensor_id;sensor_type;location;lat;lon;timestamp;temperature;humidity
30899;DHT22;17914;52.484;13.424;2024-01-27T00:01:29;18.00;53.10
30899;DHT22;17914;52.484;13.424;2024-01-27T00:03:57;18.00;53.10
30899;DHT22;17914;52.484;13.424;2024-01-27T00:06:25;18.00;53.10
30899;DHT22;17914;52.484;13.424;2024-01-27T00:08:55;18.00;53.10
30899;DHT22;17914;52.484;13.424;2024-01-27T00:11:23;18.00;53.10
30899;DHT22;17914;52.484;13.424;2024-01-27T00:13:53;18.00;53.20
30899;DHT22;17914;52.484;13.424;2024-01-27T00:16:21;17.90;53.10
30899;DHT22;17914;52.484;13.424;2024-01-27T00:18:49;17.90;53.10
30899;DHT22;17914;52.484;13.424;2024-01-27T00:21:18;17.90;53.20
30899;DHT22;17914;52.484;13.424;2024-01-27T00:23:46;17.90;53.20
30899;DHT22;17914;52.484;13.424;2024-01-27T00:26:16;17.90;53.00
30899;DHT22;17914;52.484;13.424;2024-01-27T00:28:44;17.90;53.00
30899;DHT22;17914;52.484;13.424;2024-01-27T00:31:12;17.90;53.00
30899;DHT22;17914;52.484;13.424;2024-01-27T00:33:40;17.90;53.00
30899;DHT22;17914;52.484;13.424;2024-01-27T00:36:08;17.90;53.10
30899;DHT22;17914;52.484;13.424;2024-01-27T00:38:36;17.80;52.80
30899;DHT22;17914;52.484;13.424;2024-01-27T00:41:05;17.90;53.00
30899;DHT22;17914;52.484;13.424;2024-01-27T00:43:34;17.80;53.10
30899;DHT22;17914;52.484;13.424;2024-01-27T00:46:02;17.90;53.20
30899;DHT22;17914;52.484;13.424;2024-01-27T00:48:31;17.80;53.10
30899;DHT22;17914;52.484;13.424;2024-01-27T00:50:59;17.80;53.00
30899;DHT22;17914;52.484;13.424;2024-01-27T00:53:27;17.90;53.00
30899;DHT22;17914;52.484;13.424;2024-01-27T00:55:54;17.90;53.20
30899;DHT22;17914;52.484;13.424;2024-01-27T00:58:22;17.90;53.20
30899;DHT22;17914;52.484;13.424;2024-01-27T01:00:51;17.80;53.10
30899;DHT22;17914;52.484;13.424;2024-01-27T01:03:19;17.80;53.00
30899;DHT22;17914;52.484;13.424;2024-01-27T01:05:47;17.80;53.20
30899;DHT22;17914;52.484;13.424;2024-01-27T01:08:16;17.80;53.20
30899;DHT22;17914;52.484;13.424;2024-01-27T01:10:44;17.80;53.30
30899;DHT22;17914;52.484;13.424;2024-01-27T01:13:12;17.80;53.20
30899;DHT22;17914;52.484;13.424;2024-01-27T01:15:40;17.80;53.30
30899;DHT22;17914;52.484;13.424;2024-01-27T01:18:09;17.80;53.20
30899;DHT22;17914;52.484;13.424;2024-01-27T01:20:38;17.80;53.30
30899;DHT22;17914;52.484;13.424;2024-01-27T01:23:06;17.80;53.20
30899;DHT22;17914;52.484;13.424;2024-01-27T01:25:34;17.80;53.30
30899;DHT22;17914;52.484;13.424;2024-01-27T01:28:04;17.80;53.50
30899;DHT22;17914;52.484;13.424;2024-01-27T01:30:32;17.80;53.40
30899;DHT22;17914;52.484;13.424;2024-01-27T01:33:00;17.80;53.60
30899;DHT22;17914;52.484;13.424;2024-01-27T01:35:30;17.80;53.60
30899;DHT22;17914;52.484;13.424;2024-01-27T01:37:58;17.80;53.60
30899;DHT22;17914;52.484;13.424;2024-01-27T01:40:26;17.80;53.50
30899;DHT22;17914;52.484;13.424;2024-01-27T01:42:54;17.80;53.50
30899;DHT22;17914;52.484;13.424;2024-01-27T01:45:22;17.80;53.70
30899;DHT22;17914;52.484;13.424;2024-01-27T01:47:50;17.80;53.70
30899;DHT22;17914;52.484;13.424;2024-01-27T01:50:18;17.70;53.70
30899;DHT22;17914;52.484;13.424;2024-01-27T01:52:48;17.80;53.90
30899;DHT22;17914;52.484;13.424;2024-01-27T01:55:17;17.70;53.90
30899;DHT22;17914;52.484;13.424;2024-01-27T01:57:45;17.80;53.70
30899;DHT22;17914;52.484;13.424;2024-01-27T02:00:16;17.70;53.70
30899;DHT22;17914;52.484;13.424;2024-01-27T02:02:44;17.70;53.60
30899;DHT22;17914;52.484;13.424;2024-01-27T02:05:12;17.80;53.50
30899;DHT22;17914;52.484;13.424;2024-01-27T02:07:41;17.80;53.50
30899;DHT22;17914;52.484;13.424;2024-01-27T02:10:14;17.80;53.50
30899;DHT22;17914;52.484;13.424;2024-01-27T02:12:43;17.80;53.50
30899;DHT22;17914;52.484;13.424;2024-01-27T02:15:12;17.70;53.50
30899;DHT22;17914;52.484;13.424;2024-01-27T02:17:41;17.70;53.60
30899;DHT22;17914;52.484;13.424;2024-01-27T02:20:09;17.70;53.70
30899;DHT22;17914;52.484;13.424;2024-01-27T02:22:38;17.70;53.60
30899;DHT22;17914;52.484;13.424;2024-01-27T02:25:08;17.70;53.70
30899;DHT22;17914;52.484;13.424;2024-01-27T02:27:36;17.70;53.60
30899;DHT22;17914;52.484;13.424;2024-01-27T02:30:05;17.70;53.40
30899;DHT22;17914;52.484;13.424;2024-01-27T02:32:33;17.70;53.60
30899;DHT22;17914;52.484;13.424;2024-01-27T02:35:01;17.70;53.50
30899;DHT22;17914;52.484;13.424;2024-01-27T02:37:29;17.80;53.70
30899;DHT22;17914;52.484;13.424;2024-01-27T02:39:57;17.70;54.20
30899;DHT22;17914;52.484;13.424;2024-01-27T02:42:27;17.70;53.70
30899;DHT22;17914;52.484;13.424;2024-01-27T02:44:55;17.70;53.60
30899;DHT22;17914;52.484;13.424;2024-01-27T02:47:23;17.70;53.70
30899;DHT22;17914;52.484;13.424;2024-01-27T02:49:51;17.70;53.60
30899;DHT22;17914;52.484;13.424;2024-01-27T02:52:19;17.80;53.40
30899;DHT22;17914;52.484;13.424;2024-01-27T02:54:48;17.80;53.70
30899;DHT22;17914;52.484;13.424;2024-01-27T02:57:16;17.70;53.60
30899;DHT22;17914;52.484;13.424;2024-01-27T02:59:48;17.70;53.70
30899;DHT22;17914;52.484;13.424;2024-01-27T03:02:16;17.70;53.60
30899;DHT22;17914;52.484;13.424;2024-01-27T03:04:44;17.70;53.70
30899;DHT22;17914;52.484;13.424;2024-01-27T03:07:12;17.70;53.80
30899;DHT22;17914;52.484;13.424;2024-01-27T03:09:41;17.70;53.80
30899;DHT22;17914;52.484;13.424;2024-01-27T03:12:09;17.70;54.00
30899;DHT22;17914;52.484;13.424;2024-01-27T03:14:37;17.70;54.10
30899;DHT22;17914;52.484;13.424;2024-01-27T03:17:06;17.70;54.10
30899;DHT22;17914;52.484;13.424;2024-01-27T03:19:34;17.70;54.00
30899;DHT22;17914;52.484;13.424;2024-01-27T03:22:03;17.70;54.10
30899;DHT22;17914;52.484;13.424;2024-01-27T03:24:31;17.70;54.20
30899;DHT22;17914;52.484;13.424;2024-01-27T03:26:59;17.70;54.20
30899;DHT22;17914;52.484;13.424;2024-01-27T03:29:27;17.70;54.20
30899;DHT22;17914;52.484;13.424;2024-01-27T03:31:55;17.70;54.20
30899;DHT22;17914;52.484;13.424;2024-01-27T03:34:25;17.70;54.30
30899;DHT22;17914;52.484;13.424;2024-01-27T03:36:54;17.70;54.50
30899;DHT22;17914;52.484;13.424;2024-01-27T03:39:22;17.70;54.60
30899;DHT22;17914;52.484;13.424;2024-01-27T03:41:50;17.70;54.60
30899;DHT22;17914;52.484;13.424;2024-01-27T03:44:19;17.70;54.60
30899;DHT22;17914;52.484;13.424;2024-01-27T03:46:47;17.60;54.40
30899;DHT22;17914;52.484;13.424;2024-01-27T03:49:15;17.70;54.20
30899;DHT22;17914;52.484;13.424;2024-01-27T03:51:45;17.70;54.30
30899;DHT22;17914;52.484;13.424;2024-01-27T03:54:13;17.70;54.40
30899;DHT22;17914;52.484;13.424;2024-01-27T03:56:41;17.70;54.50
30899;DHT22;17914;52.484;13.424;2024-01-27T03:59:09;17.70;54.40
30899;DHT22;17914;52.484;13.424;2024-01-27T04:01:38;17.70;54.40
30899;DHT22;17914;52.484;13.424;2024-01-27T04:04:06;17.70;54.70
30899;DHT22;17914;52.484;13.424;2024-01-27T04:06:37;17.70;55.10
30899;DHT22;17914;52.484;13.424;2024-01-27T04:09:07;17.70;55.10
30899;DHT22;17914;52.484;13.424;2024-01-27T04:11:36;17.70;54.90
30899;DHT22;17914;52.484;13.424;2024-01-27T04:14:05;17.70;54.70
30899;DHT22;17914;52.484;13.424;2024-01-27T04:16:33;17.70;54.50
30899;DHT22;17914;52.484;13.424;2024-01-27T04:19:01;17.70;54.40
30899;DHT22;17914;52.484;13.424;2024-01-27T04:21:29;17.70;54.30
30899;DHT22;17914;52.484;13.424;2024-01-27T04:23:57;17.70;54.80
30899;DHT22;17914;52.484;13.424;2024-01-27T04:26:26;17.70;54.30
30899;DHT22;17914;52.484;13.424;2024-01-27T04:28:54;17.70;54.20
30899;DHT22;17914;52.484;13.424;2024-01-27T04:31:23;17.70;54.10
30899;DHT22;17914;52.484;13.424;2024-01-27T04:33:51;17.70;54.70
30899;DHT22;17914;52.484;13.424;2024-01-27T04:36:25;17.70;54.20
30899;DHT22;17914;52.484;13.424;2024-01-27T04:38:54;17.70;54.30
30899;DHT22;17914;52.484;13.424;2024-01-27T04:41:23;17.70;54.30
30899;DHT22;17914;52.484;13.424;2024-01-27T04:43:52;17.70;54.40
30899;DHT22;17914;52.484;13.424;2024-01-27T04:46:22;17.70;54.50
30899;DHT22;17914;52.484;13.424;2024-01-27T04:48:50;17.70;54.50
30899;DHT22;17914;52.484;13.424;2024-01-27T04:51:18;17.70;54.40
30899;DHT22;17914;52.484;13.424;2024-01-27T04:53:46;17.70;54.60
30899;DHT22;17914;52.484;13.424;2024-01-27T04:56:15;17.70;54.60
30899;DHT22;17914;52.484;13.424;2024-01-27T04:58:43;17.70;55.10
30899;DHT22;17914;52.484;13.424;2024-01-27T05:01:12;17.70;54.60
30899;DHT22;17914;52.484;13.424;2024-01-27T05:03:40;17.60;54.50
30899;DHT22;17914;52.484;13.424;2024-01-27T05:06:08;17.70;55.10
30899;DHT22;17914;52.484;13.424;2024-01-27T05:08:37;17.70;55.30
30899;DHT22;17914;52.484;13.424;2024-01-27T05:11:06;17.70;55.10
30899;DHT22;17914;52.484;13.424;2024-01-27T05:13:35;17.70;55.70
30899;DHT22;17914;52.484;13.424;2024-01-27T05:16:05;17.60;55.10
30899;DHT22;17914;52.484;13.424;2024-01-27T05:18:34;17.70;55.20
30899;DHT22;17914;52.484;13.424;2024-01-27T05:21:02;17.70;55.00
30899;DHT22;17914;52.484;13.424;2024-01-27T05:23:30;17.70;54.80
30899;DHT22;17914;52.484;13.424;2024-01-27T05:25:58;17.70;54.60
30899;DHT22;17914;52.484;13.424;2024-01-27T05:28:26;17.70;54.50
30899;DHT22;17914;52.484;13.424;2024-01-27T05:30:54;17.70;54.60
30899;DHT22;17914;52.484;13.424;2024-01-27T05:33:22;17.70;54.60
30899;DHT22;17914;52.484;13.424;2024-01-27T05:35:52;17.70;54.60
30899;DHT22;17914;52.484;13.424;2024-01-27T05:38:20;17.70;54.80
30899;DHT22;17914;52.484;13.424;2024-01-27T05:40:48;17.70;54.70
30899;DHT22;17914;52.484;13.424;2024-01-27T05:43:17;17.70;54.70
30899;DHT22;17914;52.484;13.424;2024-01-27T05:45:46;17.70;54.80
30899;DHT22;17914;52.484;13.424;2024-01-27T05:48:14;17.70;55.30
30899;DHT22;17914;52.484;13.424;2024-01-27T05:50:54;17.60;54.90
30899;DHT22;17914;52.484;13.424;2024-01-27T05:53:24;17.70;54.70
30899;DHT22;17914;52.484;13.424;2024-01-27T05:55:52;17.70;54.60
30899;DHT22;17914;52.484;13.424;2024-01-27T05:58:20;17.70;54.70
30899;DHT22;17914;52.484;13.424;2024-01-27T06:00:48;17.70;54.80
30899;DHT22;17914;52.484;13.424;2024-01-27T06:03:17;17.70;54.80
30899;DHT22;17914;52.484;13.424;2024-01-27T06:05:45;17.60;54.70
30899;DHT22;17914;52.484;13.424;2024-01-27T06:08:13;17.70;54.60
30899;DHT22;17914;52.484;13.424;2024-01-27T06:10:42;17.60;54.50
30899;DHT22;17914;52.484;13.424;2024-01-27T06:13:10;17.60;54.40
30899;DHT22;17914;52.484;13.424;2024-01-27T06:15:38;17.60;54.40
30899;DHT22;17914;52.484;13.424;2024-01-27T06:18:06;17.60;54.30
30899;DHT22;17914;52.484;13.424;2024-01-27T06:20:35;17.70;54.20
30899;DHT22;17914;52.484;13.424;2024-01-27T06:23:03;17.70;54.30
30899;DHT22;17914;52.484;13.424;2024-01-27T06:25:32;17.60;54.20
30899;DHT22;17914;52.484;13.424;2024-01-27T06:28:01;17.60;54.20
30899;DHT22;17914;52.484;13.424;2024-01-27T06:30:29;17.70;54.30
30899;DHT22;17914;52.484;13.424;2024-01-27T06:32:57;17.70;54.30
30899;DHT22;17914;52.484;13.424;2024-01-27T06:35:25;17.70;54.30
30899;DHT22;17914;52.484;13.424;2024-01-27T06:37:53;17.70;54.20
30899;DHT22;17914;52.484;13.424;2024-01-27T06:40:21;17.60;54.30
30899;DHT22;17914;52.484;13.424;2024-01-27T06:42:49;17.60;54.80
30899;DHT22;17914;52.484;13.424;2024-01-27T06:45:19;17.60;54.70
30899;DHT22;17914;52.484;13.424;2024-01-27T06:47:47;17.60;54.50
30899;DHT22;17914;52.484;13.424;2024-01-27T06:50:15;17.60;54.30
30899;DHT22;17914;52.484;13.424;2024-01-27T06:52:44;17.70;54.20
30899;DHT22;17914;52.484;13.424;2024-01-27T06:55:12;17.60;54.20
30899;DHT22;17914;52.484;13.424;2024-01-27T06:57:40;17.70;54.30
30899;DHT22;17914;52.484;13.424;2024-01-27T07:00:09;17.60;54.20
30899;DHT22;17914;52.484;13.424;2024-01-27T07:02:42;17.60;54.20
30899;DHT22;17914;52.484;13.424;2024-01-27T07:05:10;17.60;54.30
30899;DHT22;17914;52.484;13.424;2024-01-27T07:07:41;17.70;54.40
30899;DHT22;17914;52.484;13.424;2024-01-27T07:10:09;17.60;54.40
30899;DHT22;17914;52.484;13.424;2024-01-27T07:12:38;17.60;54.30
30899;DHT22;17914;52.484;13.424;2024-01-27T07:15:06;17.60;54.40
30899;DHT22;17914;52.484;13.424;2024-01-27T07:17:34;17.60;54.50
30899;DHT22;17914;52.484;13.424;2024-01-27T07:20:05;17.60;54.50
30899;DHT22;17914;52.484;13.424;2024-01-27T07:22:34;17.60;54.40
30899;DHT22;17914;52.484;13.424;2024-01-27T07:25:02;17.60;54.40
30899;DHT22;17914;52.484;13.424;2024-01-27T07:27:30;17.60;54.70
30899;DHT22;17914;52.484;13.424;2024-01-27T07:29:58;17.60;54.60
30899;DHT22;17914;52.484;13.424;2024-01-27T07:32:26;17.60;55.00
30899;DHT22;17914;52.484;13.424;2024-01-27T07:34:54;17.60;55.40
30899;DHT22;17914;52.484;13.424;2024-01-27T07:37:24;17.60;55.30
30899;DHT22;17914;52.484;13.424;2024-01-27T07:39:52;17.60;55.00
30899;DHT22;17914;52.484;13.424;2024-01-27T07:42:20;17.60;54.80
30899;DHT22;17914;52.484;13.424;2024-01-27T07:44:48;17.60;54.80
30899;DHT22;17914;52.484;13.424;2024-01-27T07:47:16;17.60;55.50
30899;DHT22;17914;52.484;13.424;2024-01-27T07:49:44;17.60;54.80
30899;DHT22;17914;52.484;13.424;2024-01-27T07:52:13;17.60;54.90
30899;DHT22;17914;52.484;13.424;2024-01-27T07:54:42;17.60;54.90
30899;DHT22;17914;52.484;13.424;2024-01-27T07:57:10;17.60;54.90
30899;DHT22;17914;52.484;13.424;2024-01-27T07:59:39;17.60;55.20
30899;DHT22;17914;52.484;13.424;2024-01-27T08:02:07;17.60;55.20
30899;DHT22;17914;52.484;13.424;2024-01-27T08:04:35;17.60;55.70
30899;DHT22;17914;52.484;13.424;2024-01-27T08:07:03;17.60;55.10
30899;DHT22;17914;52.484;13.424;2024-01-27T08:09:36;17.60;54.90
30899;DHT22;17914;52.484;13.424;2024-01-27T08:12:07;17.60;55.00
30899;DHT22;17914;52.484;13.424;2024-01-27T08:14:35;17.60;55.40
30899;DHT22;17914;52.484;13.424;2024-01-27T08:17:04;17.60;55.10
30899;DHT22;17914;52.484;13.424;2024-01-27T08:19:33;17.60;54.90
30899;DHT22;17914;52.484;13.424;2024-01-27T08:22:01;17.60;54.50
30899;DHT22;17914;52.484;13.424;2024-01-27T08:24:29;17.60;53.70
30899;DHT22;17914;52.484;13.424;2024-01-27T08:26:58;17.60;54.50
30899;DHT22;17914;52.484;13.424;2024-01-27T08:29:28;17.60;54.70
30899;DHT22;17914;52.484;13.424;2024-01-27T08:31:56;17.60;54.20
30899;DHT22;17914;52.484;13.424;2024-01-27T08:34:25;17.60;53.90
30899;DHT22;17914;52.484;13.424;2024-01-27T08:36:53;17.60;54.40
30899;DHT22;17914;52.484;13.424;2024-01-27T08:39:25;17.70;54.40
30899;DHT22;17914;52.484;13.424;2024-01-27T08:41:53;17.70;54.30
30899;DHT22;17914;52.484;13.424;2024-01-27T08:44:21;17.70;53.70
30899;DHT22;17914;52.484;13.424;2024-01-27T08:46:51;17.70;54.00
30899;DHT22;17914;52.484;13.424;2024-01-27T10:24:00;19.90;49.70
30899;DHT22;17914;52.484;13.424;2024-01-27T10:26:32;19.70;50.90
30899;DHT22;17914;52.484;13.424;2024-01-27T10:29:01;19.70;51.50
30899;DHT22;17914;52.484;13.424;2024-01-27T10:31:30;19.60;52.20
30899;DHT22;17914;52.484;13.424;2024-01-27T10:33:59;19.50;51.80
30899;DHT22;17914;52.484;13.424;2024-01-27T10:36:39;19.50;52.00
30899;DHT22;17914;52.484;13.424;2024-01-27T10:39:17;19.40;52.10
30899;DHT22;17914;52.484;13.424;2024-01-27T10:41:50;19.40;52.10
30899;DHT22;17914;52.484;13.424;2024-01-27T10:44:19;19.40;52.20
30899;DHT22;17914;52.484;13.424;2024-01-27T10:46:48;19.30;52.20
30899;DHT22;17914;52.484;13.424;2024-01-27T10:49:17;19.30;52.20
30899;DHT22;17914;52.484;13.424;2024-01-27T10:51:49;19.40;52.30
30899;DHT22;17914;52.484;13.424;2024-01-27T10:54:23;19.30;52.30
30899;DHT22;17914;52.484;13.424;2024-01-27T10:56:54;19.30;52.90
30899;DHT22;17914;52.484;13.424;2024-01-27T10:59:26;19.30;52.90
30899;DHT22;17914;52.484;13.424;2024-01-27T11:01:55;19.30;52.40
30899;DHT22;17914;52.484;13.424;2024-01-27T11:04:24;19.30;52.40
30899;DHT22;17914;52.484;13.424;2024-01-27T11:06:53;19.20;52.40
30899;DHT22;17914;52.484;13.424;2024-01-27T11:09:23;19.20;52.50
30899;DHT22;17914;52.484;13.424;2024-01-27T11:11:53;19.20;52.50
30899;DHT22;17914;52.484;13.424;2024-01-27T11:14:21;19.20;52.50
30899;DHT22;17914;52.484;13.424;2024-01-27T11:16:55;19.20;52.60
30899;DHT22;17914;52.484;13.424;2024-01-27T11:19:23;19.10;52.50
30899;DHT22;17914;52.484;13.424;2024-01-27T11:22:00;19.10;52.50
30899;DHT22;17914;52.484;13.424;2024-01-27T11:24:29;19.10;52.60
30899;DHT22;17914;52.484;13.424;2024-01-27T11:27:02;19.10;52.60
30899;DHT22;17914;52.484;13.424;2024-01-27T11:29:30;19.00;52.60
30899;DHT22;17914;52.484;13.424;2024-01-27T11:32:00;19.00;52.70
30899;DHT22;17914;52.484;13.424;2024-01-27T11:34:41;19.00;52.70
30899;DHT22;17914;52.484;13.424;2024-01-27T11:37:13;19.00;52.70
30899;DHT22;17914;52.484;13.424;2024-01-27T11:39:41;19.00;52.90
30899;DHT22;17914;52.484;13.424;2024-01-27T11:42:12;19.00;52.70
30899;DHT22;17914;52.484;13.424;2024-01-27T11:44:41;19.00;52.70
30899;DHT22;17914;52.484;13.424;2024-01-27T11:47:15;19.00;52.70
30899;DHT22;17914;52.484;13.424;2024-01-27T11:49:48;18.90;52.60
30899;DHT22;17914;52.484;13.424;2024-01-27T11:52:19;18.90;52.70
30899;DHT22;17914;52.484;13.424;2024-01-27T11:54:54;18.90;52.70
30899;DHT22;17914;52.484;13.424;2024-01-27T11:57:24;18.90;52.70
30899;DHT22;17914;52.484;13.424;2024-01-27T11:59:52;18.90;52.70
30899;DHT22;17914;52.484;13.424;2024-01-27T12:02:21;18.90;52.70
30899;DHT22;17914;52.484;13.424;2024-01-27T12:04:49;18.90;52.70
30899;DHT22;17914;52.484;13.424;2024-01-27T12:07:17;18.90;52.70
30899;DHT22;17914;52.484;13.424;2024-01-27T12:09:49;18.90;52.70
30899;DHT22;17914;52.484;13.424;2024-01-27T12:12:17;18.80;52.70
30899;DHT22;17914;52.484;13.424;2024-01-27T12:14:48;18.80;52.70
30899;DHT22;17914;52.484;13.424;2024-01-27T12:17:17;18.80;52.80
30899;DHT22;17914;52.484;13.424;2024-01-27T12:19:49;18.80;52.80
30899;DHT22;17914;52.484;13.424;2024-01-27T12:22:21;18.80;52.80
30899;DHT22;17914;52.484;13.424;2024-01-27T12:24:50;18.80;52.80
30899;DHT22;17914;52.484;13.424;2024-01-27T12:27:18;18.80;52.80
30899;DHT22;17914;52.484;13.424;2024-01-27T12:29:48;18.80;52.80
30899;DHT22;17914;52.484;13.424;2024-01-27T12:32:17;18.80;52.80
30899;DHT22;17914;52.484;13.424;2024-01-27T12:34:46;18.80;52.70
30899;DHT22;17914;52.484;13.424;2024-01-27T12:37:15;18.80;52.80
30899;DHT22;17914;52.484;13.424;2024-01-27T12:39:43;18.80;52.80
30899;DHT22;17914;52.484;13.424;2024-01-27T12:42:12;18.80;52.80
30899;DHT22;17914;52.484;13.424;2024-01-27T12:44:40;18.80;52.80
30899;DHT22;17914;52.484;13.424;2024-01-27T12:47:10;18.80;52.80
30899;DHT22;17914;52.484;13.424;2024-01-27T12:49:40;18.70;52.90
30899;DHT22;17914;52.484;13.424;2024-01-27T12:52:08;18.70;52.90
30899;DHT22;17914;52.484;13.424;2024-01-27T12:54:36;18.70;52.90
30899;DHT22;17914;52.484;13.424;2024-01-27T12:57:05;18.70;52.90
30899;DHT22;17914;52.484;13.424;2024-01-27T12:59:34;18.70;52.90
30899;DHT22;17914;52.484;13.424;2024-01-27T13:02:02;18.70;52.80
30899;DHT22;17914;52.484;13.424;2024-01-27T13:04:31;18.70;52.90
30899;DHT22;17914;52.484;13.424;2024-01-27T13:07:00;18.70;52.80
30899;DHT22;17914;52.484;13.424;2024-01-27T13:09:28;18.70;52.80
30899;DHT22;17914;52.484;13.424;2024-01-27T13:11:56;18.70;53.40
30899;DHT22;17914;52.484;13.424;2024-01-27T13:14:24;18.70;52.80
30899;DHT22;17914;52.484;13.424;2024-01-27T13:16:52;18.70;52.70
30899;DHT22;17914;52.484;13.424;2024-01-27T13:19:21;18.70;52.80
30899;DHT22;17914;52.484;13.424;2024-01-27T13:21:51;18.60;52.80
30899;DHT22;17914;52.484;13.424;2024-01-27T13:24:19;18.60;52.70
30899;DHT22;17914;52.484;13.424;2024-01-27T13:26:48;18.60;52.80
30899;DHT22;17914;52.484;13.424;2024-01-27T13:29:16;18.60;52.80
30899;DHT22;17914;52.484;13.424;2024-01-27T13:31:44;18.60;52.80
30899;DHT22;17914;52.484;13.424;2024-01-27T13:34:12;18.60;52.80
30899;DHT22;17914;52.484;13.424;2024-01-27T13:36:41;18.60;52.80
30899;DHT22;17914;52.484;13.424;2024-01-27T13:39:10;18.60;52.80
30899;DHT22;17914;52.484;13.424;2024-01-27T13:41:39;18.60;52.80
30899;DHT22;17914;52.484;13.424;2024-01-27T13:44:07;18.60;52.80
30899;DHT22;17914;52.484;13.424;2024-01-27T13:46:35;18.60;53.30
30899;DHT22;17914;52.484;13.424;2024-01-27T13:49:03;18.60;52.70
30899;DHT22;17914;52.484;13.424;2024-01-27T13:51:31;18.60;52.70
30899;DHT22;17914;52.484;13.424;2024-01-27T13:53:59;18.60;52.80
30899;DHT22;17914;52.484;13.424;2024-01-27T13:56:29;18.60;52.80
30899;DHT22;17914;52.484;13.424;2024-01-27T13:58:59;18.60;52.70
30899;DHT22;17914;52.484;13.424;2024-01-27T14:01:27;18.60;53.30
30899;DHT22;17914;52.484;13.424;2024-01-27T14:03:55;18.60;52.70
30899;DHT22;17914;52.484;13.424;2024-01-27T14:06:23;18.60;52.70
30899;DHT22;17914;52.484;13.424;2024-01-27T14:08:52;18.60;52.70
30899;DHT22;17914;52.484;13.424;2024-01-27T14:11:20;18.60;52.70
30899;DHT22;17914;52.484;13.424;2024-01-27T14:13:50;18.60;52.70
30899;DHT22;17914;52.484;13.424;2024-01-27T14:16:18;18.60;52.70
30899;DHT22;17914;52.484;13.424;2024-01-27T14:18:47;18.60;52.70
30899;DHT22;17914;52.484;13.424;2024-01-27T14:21:16;18.60;52.70
30899;DHT22;17914;52.484;13.424;2024-01-27T14:23:44;18.60;52.60
30899;DHT22;17914;52.484;13.424;2024-01-27T14:26:12;18.60;52.60
30899;DHT22;17914;52.484;13.424;2024-01-27T14:28:42;18.60;52.60
30899;DHT22;17914;52.484;13.424;2024-01-27T14:31:12;18.60;52.60
30899;DHT22;17914;52.484;13.424;2024-01-27T14:33:42;18.60;52.70
30899;DHT22;17914;52.484;13.424;2024-01-27T14:36:10;18.60;52.60
30899;DHT22;17914;52.484;13.424;2024-01-27T14:38:38;18.50;52.60
30899;DHT22;17914;52.484;13.424;2024-01-27T14:41:08;18.50;52.70
30899;DHT22;17914;52.484;13.424;2024-01-27T14:43:38;18.50;52.70
30899;DHT22;17914;52.484;13.424;2024-01-27T14:46:06;18.50;52.70
30899;DHT22;17914;52.484;13.424;2024-01-27T14:48:35;18.50;52.70
30899;DHT22;17914;52.484;13.424;2024-01-27T14:51:04;18.50;52.60
30899;DHT22;17914;52.484;13.424;2024-01-27T14:53:34;18.50;52.70
30899;DHT22;17914;52.484;13.424;2024-01-27T14:56:03;18.50;52.60
30899;DHT22;17914;52.484;13.424;2024-01-27T14:58:31;18.50;52.60
30899;DHT22;17914;52.484;13.424;2024-01-27T15:00:59;18.50;52.60
30899;DHT22;17914;52.484;13.424;2024-01-27T15:03:27;18.50;52.60
30899;DHT22;17914;52.484;13.424;2024-01-27T15:05:57;18.50;53.20
30899;DHT22;17914;52.484;13.424;2024-01-27T15:08:26;18.50;52.70
30899;DHT22;17914;52.484;13.424;2024-01-27T15:10:54;18.50;52.70
30899;DHT22;17914;52.484;13.424;2024-01-27T15:13:22;18.50;52.70
30899;DHT22;17914;52.484;13.424;2024-01-27T15:15:51;18.50;52.70
30899;DHT22;17914;52.484;13.424;2024-01-27T15:18:19;18.50;52.70
30899;DHT22;17914;52.484;13.424;2024-01-27T15:20:49;18.50;52.70
30899;DHT22;17914;52.484;13.424;2024-01-27T15:23:18;18.50;52.70
30899;DHT22;17914;52.484;13.424;2024-01-27T15:25:51;18.50;52.70
30899;DHT22;17914;52.484;13.424;2024-01-27T15:28:19;18.50;52.70
30899;DHT22;17914;52.484;13.424;2024-01-27T15:30:47;18.40;52.70
30899;DHT22;17914;52.484;13.424;2024-01-27T15:33:16;18.40;52.70
30899;DHT22;17914;52.484;13.424;2024-01-27T15:35:44;18.40;52.70
30899;DHT22;17914;52.484;13.424;2024-01-27T15:38:12;18.40;52.70
30899;DHT22;17914;52.484;13.424;2024-01-27T15:40:42;18.40;52.70
30899;DHT22;17914;52.484;13.424;2024-01-27T15:43:10;18.40;52.70
30899;DHT22;17914;52.484;13.424;2024-01-27T15:45:38;18.40;52.70
30899;DHT22;17914;52.484;13.424;2024-01-27T15:48:06;18.40;52.70
30899;DHT22;17914;52.484;13.424;2024-01-27T15:50:37;18.40;52.70
30899;DHT22;17914;52.484;13.424;2024-01-27T15:53:05;18.40;52.70
30899;DHT22;17914;52.484;13.424;2024-01-27T15:55:34;18.40;52.80
30899;DHT22;17914;52.484;13.424;2024-01-27T15:58:04;18.40;52.70
30899;DHT22;17914;52.484;13.424;2024-01-27T16:00:32;18.40;52.70
30899;DHT22;17914;52.484;13.424;2024-01-27T16:03:00;18.40;52.70
30899;DHT22;17914;52.484;13.424;2024-01-27T16:05:28;18.40;52.70
30899;DHT22;17914;52.484;13.424;2024-01-27T16:07:56;18.40;52.80
30899;DHT22;17914;52.484;13.424;2024-01-27T16:10:24;18.40;52.90
30899;DHT22;17914;52.484;13.424;2024-01-27T16:12:52;18.40;52.80
30899;DHT22;17914;52.484;13.424;2024-01-27T16:15:21;18.30;52.80
30899;DHT22;17914;52.484;13.424;2024-01-27T16:17:50;18.30;52.90
30899;DHT22;17914;52.484;13.424;2024-01-27T16:20:18;18.30;52.90
30899;DHT22;17914;52.484;13.424;2024-01-27T16:22:46;18.30;52.80
30899;DHT22;17914;52.484;13.424;2024-01-27T16:25:14;18.30;52.80
30899;DHT22;17914;52.484;13.424;2024-01-27T16:27:42;18.40;52.80
30899;DHT22;17914;52.484;13.424;2024-01-27T16:30:11;18.40;52.80
30899;DHT22;17914;52.484;13.424;2024-01-27T16:32:40;18.30;52.90
30899;DHT22;17914;52.484;13.424;2024-01-27T16:35:08;18.30;52.80
30899;DHT22;17914;52.484;13.424;2024-01-27T16:37:37;18.30;52.90
30899;DHT22;17914;52.484;13.424;2024-01-27T16:40:06;18.30;53.50
30899;DHT22;17914;52.484;13.424;2024-01-27T16:42:35;18.30;52.90
30899;DHT22;17914;52.484;13.424;2024-01-27T16:45:04;18.30;52.90
30899;DHT22;17914;52.484;13.424;2024-01-27T16:47:34;18.30;52.90
30899;DHT22;17914;52.484;13.424;2024-01-27T16:50:04;18.30;52.90
30899;DHT22;17914;52.484;13.424;2024-01-27T16:52:32;18.30;52.90
30899;DHT22;17914;52.484;13.424;2024-01-27T16:55:00;18.30;52.90
30899;DHT22;17914;52.484;13.424;2024-01-27T16:57:28;18.30;52.90
30899;DHT22;17914;52.484;13.424;2024-01-27T16:59:58;18.30;52.90